Airfield :
LOGIN :

Register | Disclaimer

   EN    FR    IT 

 










Legend :    VFR   Marginal VFR   IFR   Intensive IFR   Very Intensive IFR
Visi :
Ceiling :
>= 8 km
>= 3000ft
5 to 8 km
1000 to 3000 ft
1500m to 5 km
500 to 1000 ft
800 to 1500m
200 to 500 ft
< 800m
< 200 ft
Symbols :   Thunderstorms  Fog  Heavy snow  Heavy precipitations  Wind > 20 kt
SIGMETs :     Misc.  Thunderstorms  Icing  Turbulence  Mountain Waves  Volcanic Ashes







- Airport Elevation : 2945 ft
- IATA code : RGS


LEBG - Burgos

CURRENT METAR :
  • 110000Z AUTO VRB01KT 9999 NCD 00/M01 Q1026

EXPIRED METARs :
  • 102330Z AUTO 04002KT 9999 NCD 00/M02 Q1027
  • 102300Z AUTO VRB01KT 9999 NCD 00/M01 Q1027
  • 102230Z AUTO 00000KT 9999 NCD 01/M01 Q1027
  • 102200Z AUTO 00000KT 9999 NCD 01/M00 Q1027
  • 102130Z AUTO 05004KT 9999 NCD 01/M00 Q1027

TAF TAF LEBG
Valid from the 10 at 18:00 until the 11 at 03:00 UTC


101700Z 1018/1103 VRB02KT CAVOK
No reported NOTAMs for that airfield.



MET'MAP, your aeronautical weather chart ! - Copyright ORBIFLY December 2007 - Disclaimer

ORBIFLY MET'MAP TEAM :

Programming & Development : Alexandra Zaïnal
Concept & Development : Baudouin d'Aumeries
Co-Development & Prog : Marc-Olivier Méhu
Technical & hardware support : Manuel Goepfert

Contact : metmap@orbifly.com




SOURCES & CREDITS :

   NOAA